createdAt,value
2019-01-23T00:02:34.328Z,85.40
2019-01-23T00:18:29.314Z,86.60
2019-01-23T00:34:23.242Z,86.27
2019-01-23T00:50:16.927Z,95.17
2019-01-23T01:06:10.602Z,98.03
2019-01-23T01:22:04.236Z,77.77
2019-01-23T01:37:58.146Z,65.33
2019-01-23T01:53:51.780Z,68.87
2019-01-23T02:09:45.670Z,71.63
2019-01-23T02:25:39.447Z,76.43
2019-01-23T02:41:33.123Z,70.60
2019-01-23T02:57:27.148Z,66.33
2019-01-23T03:13:20.886Z,74.07
2019-01-23T03:29:15.092Z,69.63
2019-01-23T03:45:11.026Z,62.87
2019-01-23T04:01:04.537Z,63.10
2019-01-23T04:16:58.038Z,62.67
2019-01-23T04:32:51.742Z,70.07
2019-01-23T04:48:45.685Z,66.40
2019-01-23T05:04:39.637Z,70.07
2019-01-23T05:20:33.190Z,68.43
2019-01-23T05:36:26.949Z,64.20
2019-01-23T05:52:21.202Z,62.10
2019-01-23T06:08:15.026Z,63.67
2019-01-23T06:24:11.412Z,62.60
2019-01-23T06:40:08.118Z,67.43
2019-01-23T06:56:02.164Z,59.60
2019-01-23T07:11:55.910Z,48.57
2019-01-23T07:27:49.449Z,52.73
2019-01-23T07:43:43.102Z,49.13
2019-01-23T07:59:36.692Z,53.03
2019-01-23T08:15:32.624Z,56.80
2019-01-23T08:31:26.982Z,49.50
2019-01-23T08:47:20.511Z,46.23
2019-01-23T09:03:14.205Z,50.03
2019-01-23T09:19:07.764Z,47.33
2019-01-23T09:52:41.418Z,29.37
2019-01-23T10:08:34.864Z,26.73
2019-01-23T10:24:28.706Z,19.53
2019-01-23T10:40:22.402Z,18.53
2019-01-23T10:56:16.031Z,22.33
2019-01-23T11:12:09.678Z,24.57
2019-01-23T11:28:04.157Z,18.93
2019-01-23T11:43:58.311Z,19.10
2019-01-23T11:59:52.414Z,15.67
2019-01-23T12:15:46.184Z,11.90
2019-01-23T12:31:40.034Z,9.67
2019-01-23T12:47:33.723Z,11.60
2019-01-23T13:03:27.995Z,12.47
2019-01-23T13:19:21.916Z,13.30
2019-01-23T13:35:18.994Z,13.03
2019-01-23T13:51:12.845Z,13.13
2019-01-23T14:07:06.623Z,13.33
2019-01-23T14:23:00.456Z,22.27
2019-01-23T14:38:54.245Z,18.60
2019-01-23T14:54:48.022Z,18.33
2019-01-23T15:10:41.735Z,32.93
2019-01-23T15:26:35.292Z,35.70
2019-01-23T15:42:29.645Z,52.90
2019-01-23T15:58:23.413Z,19.93
2019-01-23T16:14:17.375Z,18.00
2019-01-23T16:30:14.420Z,19.87
2019-01-23T16:46:08.404Z,19.13
2019-01-23T17:02:02.155Z,20.30
2019-01-23T17:17:56.127Z,50.77
2019-01-23T17:33:49.803Z,28.83
2019-01-23T17:50:02.904Z,26.70
2019-01-23T18:05:56.847Z,23.30
2019-01-23T18:21:50.499Z,22.30
2019-01-23T18:37:47.664Z,33.87
2019-01-23T18:53:41.864Z,19.57
2019-01-23T19:09:35.815Z,14.03
2019-01-23T19:25:29.772Z,23.80
2019-01-23T19:41:23.338Z,18.37
2019-01-23T19:57:17.080Z,21.20
2019-01-23T20:13:11.275Z,19.63
2019-01-23T20:29:05.435Z,17.50
2019-01-23T20:44:59.194Z,20.37
2019-01-23T21:00:52.932Z,22.23
2019-01-23T21:16:46.488Z,17.93
2019-01-23T21:32:40.475Z,18.70
2019-01-23T21:48:34.155Z,17.95
2019-01-23T22:04:39.875Z,10.63
2019-01-23T22:20:33.798Z,13.80
2019-01-23T22:36:27.479Z,13.90
2019-01-23T22:52:21.421Z,9.77
2019-01-23T23:08:15.450Z,14.33
2019-01-23T23:24:09.346Z,8.67
2019-01-23T23:40:03.512Z,10.70
2019-01-23T23:55:57.350Z,12.23
